No particular awareness of the weather is required.    There are no Weather-warnings


Ulpukkaniemi more information Ulpukkaniemi


Yksityisiä sääasemia lähellä:

Template documentation
and downloads

And another site


Löydät sääaseman tiedot myös:

European Weather Network



Säätiedot lähimmiltä METAR asemilta

   
EBAW - Antwerp
Päivitetty: 20-04-2018 18:50
Selkeää  
Selkeää  
   Tuuli: Länsiluode 5.7 m/s
Tuuli: Länsiluode 5.7 m/s
Lämpötila: 25°C
Kastepiste: 7°C
Kosteus: 32%
Ilmanpaine: 1022 hPa
Näkyvyys: Enemmän kuin 10 km
Pilvitiedot: Selkeää
EBAW 201550Z 30011KT CAVOK 25/07 Q1022 NOSIG
EBLG - Liège
Päivitetty: 20-04-2018 18:50
Selkeää  
Selkeää  
   Tuuli: Länsiluode 2.6 m/s
Tuuli: Länsiluode 2.6 m/s
Lämpötila: 26°C
Kastepiste: 10°C
Kosteus: 37%
Ilmanpaine: 1022 hPa
Näkyvyys: Enemmän kuin 10 km
Pilvitiedot: Selkeää
EBLG 201550Z 30005KT 270V360 CAVOK 26/10 Q1022 NOSIG
EBCV - Mons/Bergen
Päivitetty: 20-04-2018 18:55
Vähäistä pilvisyyttä  
Vähäistä pilvisyyttä  
   Tuuli: Pohjoisluode 3.1 m/s
Tuuli: Pohjoisluode 3.1 m/s
Lämpötila: 26°C
Kastepiste: 13°C
Kosteus: 45%
Ilmanpaine: 1022 hPa
Pilvisyys: Vähäistä pilvisyyttä
Näkyvyys: Enemmän kuin 10 km
Pilvitiedot: Vähäistä pilvisyyttä 6500 ft
EBCV 201555Z AUTO 34006KT 9999 FEW065/// 26/13 Q1022 BLU
EHBK - Maastricht
Päivitetty: 20-04-2018 18:55
Puolipilvistä  
Puolipilvistä  
   Tuuli: vaihtelee 1 m/s
Tuuli: vaihtelee 1 m/s
Lämpötila: 27°C
Kastepiste: 12°C
Kosteus: 39%
Ilmanpaine: 1021 hPa
Pilvisyys: Puolipilvistä
Näkyvyys: Enemmän kuin 10 km
Pilvitiedot: Puolipilvistä
EHBK 201555Z AUTO VRB02KT 9999 NSC 27/12 Q1021 NOSIG
ELLX - Luxemburg
Päivitetty: 20-04-2018 18:50
Selkeää  
Selkeää  
   Tuuli: vaihtelee 2.6 m/s
Tuuli: vaihtelee 2.6 m/s
Lämpötila: 26°C
Kastepiste: 7°C
Kosteus: 30%
Ilmanpaine: 1022 hPa
Näkyvyys: Enemmän kuin 10 km
Pilvitiedot: Selkeää
ELLX 201550Z VRB05KT CAVOK 26/07 Q1022 NOSIG
EBOS - Oostende
Päivitetty: 20-04-2018 18:50
Vähäistä pilvisyyttä  
Vähäistä pilvisyyttä  
   Tuuli: Länsiluode 5.1 m/s
Tuuli: Länsiluode 5.1 m/s
Lämpötila: 17°C
Kastepiste: 9°C
Kosteus: 59%
Ilmanpaine: 1023 hPa
Pilvisyys: Vähäistä pilvisyyttä
Näkyvyys: Enemmän kuin 10 km
Pilvitiedot: Vähäistä pilvisyyttä 3900 ft
EBOS 201550Z 30010KT 9999 FEW039 17/09 Q1023 NOSIG

Alkuperäinen skripti  Saratoga-weather.org Sovitettu myös templatelle  Weerstation Leuven

Laitteet joita käytämme:

Sääasema
WS3083

Sääasemaohjelma
Cumulus

Sääaseman tietokone
RaspberryPI

Palveluntarjoaja
Suncomet

WS3083

Cumulus

RaspberryPI

Suncomet